createdAt,value
2019-05-23T00:00:15.589Z,10.71
2019-05-23T00:01:15.569Z,10.76
2019-05-23T00:02:15.671Z,10.75
2019-05-23T00:03:15.580Z,10.60
2019-05-23T00:04:15.565Z,10.60
2019-05-23T00:05:15.548Z,10.59
2019-05-23T00:06:15.511Z,10.63
2019-05-23T00:07:15.502Z,10.63
2019-05-23T00:08:15.488Z,10.60
2019-05-23T00:09:15.505Z,10.67
2019-05-23T00:10:15.494Z,10.72
2019-05-23T00:11:15.469Z,10.67
2019-05-23T00:12:15.439Z,10.76
2019-05-23T00:13:15.429Z,10.78
2019-05-23T00:14:15.418Z,10.74
2019-05-23T00:15:15.443Z,10.63
2019-05-23T00:16:15.409Z,10.74
2019-05-23T00:17:15.401Z,10.74
2019-05-23T00:18:15.567Z,10.69
2019-05-23T00:19:15.369Z,10.60
2019-05-23T00:20:15.383Z,10.54
2019-05-23T00:21:15.361Z,10.42
2019-05-23T00:22:15.335Z,10.42
2019-05-23T00:23:15.318Z,10.40
2019-05-23T00:24:15.313Z,10.40
2019-05-23T00:25:15.308Z,10.38
2019-05-23T00:26:15.311Z,10.40
2019-05-23T00:27:15.310Z,10.40
2019-05-23T00:28:15.275Z,10.42
2019-05-23T00:29:15.253Z,10.34
2019-05-23T00:30:15.285Z,10.38
2019-05-23T00:31:15.270Z,10.41
2019-05-23T00:32:15.233Z,10.37
2019-05-23T00:33:15.254Z,10.41
2019-05-23T00:34:15.234Z,10.41
2019-05-23T00:35:15.192Z,10.41
2019-05-23T00:36:15.189Z,10.33
2019-05-23T00:37:15.185Z,10.38
2019-05-23T00:38:15.155Z,10.28
2019-05-23T00:39:15.157Z,10.28
2019-05-23T00:40:15.129Z,10.13
2019-05-23T00:41:15.144Z,10.26
2019-05-23T00:42:15.185Z,10.16
2019-05-23T00:43:15.125Z,10.15
2019-05-23T00:44:15.091Z,10.19
2019-05-23T00:45:15.122Z,10.07
2019-05-23T00:46:15.069Z,10.04
2019-05-23T00:47:15.104Z,10.15
2019-05-23T00:48:15.043Z,10.09
2019-05-23T00:49:15.075Z,10.17
2019-05-23T00:50:15.018Z,10.05
2019-05-23T00:51:15.015Z,10.09
2019-05-23T00:52:15.006Z,10.15
2019-05-23T00:53:15.015Z,10.07
2019-05-23T00:54:15.000Z,10.07
2019-05-23T00:55:14.985Z,10.07
2019-05-23T00:56:14.955Z,10.13
2019-05-23T00:57:14.940Z,10.16
2019-05-23T00:58:14.945Z,10.13
2019-05-23T00:59:26.650Z,10.20
2019-05-23T01:00:15.917Z,10.12
2019-05-23T01:01:14.897Z,10.20
2019-05-23T01:02:14.885Z,10.15
2019-05-23T01:03:14.880Z,10.20
2019-05-23T01:04:14.872Z,10.17
2019-05-23T01:05:14.870Z,10.12
2019-05-23T01:06:14.860Z,10.13
2019-05-23T01:07:14.830Z,10.20
2019-05-23T01:08:14.827Z,10.17
2019-05-23T01:09:14.821Z,10.17
2019-05-23T01:10:14.804Z,10.20
2019-05-23T01:11:14.806Z,10.17
2019-05-23T01:12:14.783Z,10.17
2019-05-23T01:13:14.765Z,10.17
2019-05-23T01:14:14.802Z,10.12
2019-05-23T01:15:14.750Z,10.15
2019-05-23T01:16:14.743Z,10.04
2019-05-23T01:17:14.739Z,10.09
2019-05-23T01:18:14.728Z,10.04
2019-05-23T01:19:14.696Z,10.04
2019-05-23T01:20:14.691Z,9.99
2019-05-23T01:21:14.681Z,9.91
2019-05-23T01:22:14.675Z,9.84
2019-05-23T01:23:14.681Z,9.89
2019-05-23T01:24:14.660Z,9.77
2019-05-23T01:25:14.635Z,9.80
2019-05-23T01:26:14.633Z,9.68
2019-05-23T01:27:14.624Z,9.76
2019-05-23T01:28:14.605Z,9.73
2019-05-23T01:29:14.617Z,9.68
2019-05-23T01:30:14.603Z,9.68
2019-05-23T01:31:14.567Z,9.72
2019-05-23T01:32:14.625Z,9.64
2019-05-23T01:33:14.540Z,9.66
2019-05-23T01:34:14.529Z,9.56
2019-05-23T01:35:14.525Z,9.55
2019-05-23T01:36:14.519Z,9.50
2019-05-23T01:37:14.521Z,9.56
2019-05-23T01:38:14.487Z,9.50
2019-05-23T01:39:14.476Z,9.46
2019-05-23T01:40:14.491Z,9.48
2019-05-23T01:41:14.455Z,9.46
2019-05-23T01:42:14.443Z,9.47
2019-05-23T01:43:14.441Z,9.44
2019-05-23T01:44:14.422Z,9.47
2019-05-23T01:45:14.411Z,9.40
2019-05-23T01:46:14.426Z,9.43
2019-05-23T01:47:14.408Z,9.44
2019-05-23T01:48:14.424Z,9.44
2019-05-23T01:49:14.416Z,9.36
2019-05-23T01:50:14.364Z,9.41
2019-05-23T01:51:14.344Z,9.26
2019-05-23T01:52:14.348Z,9.34
2019-05-23T01:53:14.345Z,9.32
2019-05-23T01:54:14.313Z,9.28
2019-05-23T01:55:14.334Z,9.21
2019-05-23T01:56:14.322Z,9.22
2019-05-23T01:57:14.282Z,9.19
2019-05-23T01:58:14.290Z,9.14
2019-05-23T01:59:14.272Z,9.25
2019-05-23T02:00:14.267Z,9.23
2019-05-23T02:01:14.244Z,9.28
2019-05-23T02:02:14.230Z,9.21
2019-05-23T02:03:14.222Z,9.25
2019-05-23T02:04:14.208Z,9.21
2019-05-23T02:05:14.218Z,9.21
2019-05-23T02:06:14.183Z,9.19
2019-05-23T02:07:14.167Z,9.10
2019-05-23T02:08:14.169Z,9.14
2019-05-23T02:09:14.152Z,9.08
2019-05-23T02:10:14.137Z,9.04
2019-05-23T02:11:14.169Z,9.06
2019-05-23T02:12:14.114Z,9.00
2019-05-23T02:13:14.119Z,9.10
2019-05-23T02:14:14.096Z,9.04
2019-05-23T02:15:14.102Z,9.08
2019-05-23T02:16:14.066Z,9.08
2019-05-23T02:17:14.059Z,9.13
2019-05-23T02:18:14.046Z,9.10
2019-05-23T02:19:14.061Z,9.14
2019-05-23T02:20:14.027Z,9.08
2019-05-23T02:21:14.020Z,9.10
2019-05-23T02:22:14.009Z,9.18
2019-05-23T02:23:13.997Z,9.10
2019-05-23T02:24:13.994Z,9.14
2019-05-23T02:25:14.081Z,9.13
2019-05-23T02:26:13.965Z,9.18
2019-05-23T02:27:13.949Z,9.04
2019-05-23T02:28:13.955Z,9.08
2019-05-23T02:29:13.931Z,9.04
2019-05-23T02:30:32.370Z,9.08
2019-05-23T02:31:14.904Z,9.00
2019-05-23T02:32:13.935Z,8.99
2019-05-23T02:33:13.884Z,8.91
2019-05-23T02:34:13.917Z,9.02
2019-05-23T02:35:13.874Z,9.03
2019-05-23T02:36:13.856Z,8.99
2019-05-23T02:37:13.849Z,9.03
2019-05-23T02:38:13.831Z,8.92
2019-05-23T02:39:13.819Z,8.91
2019-05-23T02:40:13.898Z,8.91
2019-05-23T02:41:13.802Z,8.84
2019-05-23T02:42:13.784Z,8.82
2019-05-23T02:43:13.779Z,8.81
2019-05-23T02:44:13.845Z,8.81
2019-05-23T02:45:13.762Z,8.82
2019-05-23T02:46:13.770Z,8.79
2019-05-23T02:47:13.754Z,8.73
2019-05-23T02:48:13.720Z,8.73
2019-05-23T02:49:13.715Z,8.69
2019-05-23T02:50:13.707Z,8.76
2019-05-23T02:51:13.680Z,8.66
2019-05-23T02:52:13.700Z,8.73
2019-05-23T02:53:13.662Z,8.74
2019-05-23T02:54:13.658Z,8.74
2019-05-23T02:55:13.641Z,8.73
2019-05-23T02:56:13.629Z,8.71
2019-05-23T02:57:13.635Z,8.74
2019-05-23T02:58:13.608Z,8.73
2019-05-23T02:59:13.595Z,8.74
2019-05-23T03:00:13.591Z,8.73
2019-05-23T03:01:13.573Z,8.63
2019-05-23T03:02:13.568Z,8.66
2019-05-23T03:03:13.579Z,8.69
2019-05-23T03:04:13.547Z,8.70
2019-05-23T03:05:13.546Z,8.63
2019-05-23T03:06:13.518Z,8.61
2019-05-23T03:07:13.507Z,8.63
2019-05-23T03:08:13.494Z,8.61
2019-05-23T03:09:13.489Z,8.61
2019-05-23T03:10:13.487Z,8.67
2019-05-23T03:11:13.480Z,8.61
2019-05-23T03:12:13.451Z,8.69
2019-05-23T03:13:13.440Z,8.63
2019-05-23T03:14:13.504Z,8.51
2019-05-23T03:15:13.426Z,8.69
2019-05-23T03:16:13.411Z,8.67
2019-05-23T03:17:13.403Z,8.55
2019-05-23T03:18:13.384Z,8.55
2019-05-23T03:19:13.389Z,8.52
2019-05-23T03:20:13.379Z,8.46
2019-05-23T03:21:13.354Z,8.49
2019-05-23T03:22:13.340Z,8.46
2019-05-23T03:23:13.374Z,8.41
2019-05-23T03:24:13.318Z,8.45
2019-05-23T03:25:13.305Z,8.36
2019-05-23T03:26:13.320Z,8.45
2019-05-23T03:27:13.288Z,8.37
2019-05-23T03:28:13.276Z,8.36
2019-05-23T03:29:13.265Z,8.31
2019-05-23T03:30:13.257Z,8.27
2019-05-23T03:31:28.724Z,8.27
2019-05-23T03:32:14.244Z,8.26
2019-05-23T03:33:13.217Z,8.16
2019-05-23T03:34:13.211Z,8.23
2019-05-23T03:35:13.197Z,8.19
2019-05-23T03:36:13.220Z,8.26
2019-05-23T03:37:13.199Z,8.26
2019-05-23T03:38:13.167Z,8.26
2019-05-23T03:39:13.186Z,8.24
2019-05-23T03:40:13.142Z,8.26
2019-05-23T03:41:13.130Z,8.19
2019-05-23T03:42:13.119Z,8.28
2019-05-23T03:43:13.125Z,8.28
2019-05-23T03:44:13.099Z,8.31
2019-05-23T03:45:13.089Z,8.31
2019-05-23T03:46:13.076Z,8.30
2019-05-23T03:47:13.062Z,8.31
2019-05-23T03:48:13.054Z,8.26
2019-05-23T03:49:13.053Z,8.20
2019-05-23T03:50:13.030Z,8.20
2019-05-23T03:51:13.019Z,8.28
2019-05-23T03:52:13.008Z,8.23
2019-05-23T03:53:13.036Z,8.16
2019-05-23T03:54:13.044Z,8.27
2019-05-23T03:55:12.984Z,8.30
2019-05-23T03:56:12.976Z,8.36
2019-05-23T03:57:12.956Z,8.34
2019-05-23T03:58:12.970Z,8.31
2019-05-23T03:59:12.939Z,8.33
2019-05-23T04:00:12.976Z,8.34
2019-05-23T04:01:12.950Z,8.38
2019-05-23T04:02:12.897Z,8.31
2019-05-23T04:03:12.906Z,8.36
2019-05-23T04:04:12.883Z,8.36
2019-05-23T04:05:12.898Z,8.36
2019-05-23T04:06:12.858Z,8.36
2019-05-23T04:07:12.861Z,8.19
2019-05-23T04:08:12.835Z,8.23
2019-05-23T04:09:12.821Z,8.23
2019-05-23T04:10:12.902Z,8.20
2019-05-23T04:11:12.799Z,8.24
2019-05-23T04:12:12.836Z,8.19
2019-05-23T04:13:12.807Z,8.15
2019-05-23T04:14:12.802Z,8.13
2019-05-23T04:15:12.767Z,8.16
2019-05-23T04:16:12.744Z,8.23
2019-05-23T04:17:12.736Z,8.36
2019-05-23T04:18:12.750Z,8.26
2019-05-23T04:19:12.714Z,8.30
2019-05-23T04:20:12.699Z,8.33
2019-05-23T04:21:12.785Z,8.31
2019-05-23T04:22:12.684Z,8.27
2019-05-23T04:23:12.700Z,8.28
2019-05-23T04:24:12.677Z,8.41
2019-05-23T04:25:12.661Z,8.31
2019-05-23T04:26:12.648Z,8.37
2019-05-23T04:27:12.627Z,8.33
2019-05-23T04:28:12.624Z,8.34
2019-05-23T04:29:12.624Z,8.41
2019-05-23T04:30:12.606Z,8.41
2019-05-23T04:31:13.418Z,8.45
2019-05-23T04:32:12.568Z,8.46
2019-05-23T04:33:12.560Z,8.46
2019-05-23T04:34:12.554Z,8.53
2019-05-23T04:35:12.593Z,8.66
2019-05-23T04:36:12.582Z,8.67
2019-05-23T04:37:12.516Z,8.67
2019-05-23T04:38:12.510Z,8.69
2019-05-23T04:39:12.488Z,8.69
2019-05-23T04:40:12.478Z,8.66
2019-05-23T04:41:12.480Z,8.70
2019-05-23T04:42:12.472Z,8.76
2019-05-23T04:43:12.445Z,8.74
2019-05-23T04:44:12.463Z,8.78
2019-05-23T04:45:12.434Z,8.76
2019-05-23T04:46:12.431Z,8.76
2019-05-23T04:47:12.416Z,8.78
2019-05-23T04:48:12.425Z,8.79
2019-05-23T04:49:12.382Z,8.82
2019-05-23T04:50:12.368Z,8.79
2019-05-23T04:51:12.369Z,8.76
2019-05-23T04:52:12.349Z,8.79
2019-05-23T04:53:12.340Z,8.76
2019-05-23T04:54:12.343Z,8.78
2019-05-23T04:55:12.337Z,8.79
2019-05-23T04:56:12.307Z,8.76
2019-05-23T04:57:12.296Z,8.82
2019-05-23T04:58:12.286Z,8.85
2019-05-23T04:59:12.276Z,8.88
2019-05-23T05:00:12.293Z,8.82
2019-05-23T05:01:12.250Z,8.97
2019-05-23T05:02:25.734Z,8.88
2019-05-23T05:03:17.335Z,8.99
2019-05-23T05:04:12.217Z,9.03
2019-05-23T05:05:21.487Z,9.02
2019-05-23T05:06:12.202Z,9.10
2019-05-23T05:07:12.180Z,9.14
2019-05-23T05:08:12.388Z,9.28
2019-05-23T05:09:12.161Z,9.31
2019-05-23T05:10:12.147Z,9.29
2019-05-23T05:11:12.164Z,9.41
2019-05-23T05:12:12.127Z,9.47
2019-05-23T05:13:12.112Z,9.64
2019-05-23T05:14:12.101Z,9.68
2019-05-23T05:15:12.092Z,9.79
2019-05-23T05:16:12.139Z,9.89
2019-05-23T05:17:12.088Z,9.95
2019-05-23T05:18:12.061Z,10.09
2019-05-23T05:19:12.077Z,10.13
2019-05-23T05:20:12.036Z,10.15
2019-05-23T05:21:12.042Z,10.17
2019-05-23T05:22:12.016Z,10.26
2019-05-23T05:23:12.031Z,10.34
2019-05-23T05:24:12.005Z,10.48
2019-05-23T05:25:12.026Z,10.40
2019-05-23T05:26:11.974Z,10.49
2019-05-23T05:27:11.962Z,10.59
2019-05-23T05:28:11.966Z,10.60
2019-05-23T05:29:11.937Z,10.75
2019-05-23T05:30:11.934Z,10.93
2019-05-23T05:31:11.938Z,11.00
2019-05-23T05:32:11.904Z,11.25
2019-05-23T05:33:11.897Z,11.41
2019-05-23T05:34:11.906Z,11.47
2019-05-23T05:35:11.873Z,11.55
2019-05-23T05:36:11.870Z,11.68
2019-05-23T05:37:11.853Z,11.95
2019-05-23T05:38:11.838Z,12.02
2019-05-23T05:39:11.827Z,12.13
2019-05-23T05:40:11.848Z,12.31
2019-05-23T05:41:11.804Z,12.32
2019-05-23T05:42:11.799Z,12.37
2019-05-23T05:43:11.784Z,12.53
2019-05-23T05:44:12.079Z,12.70
2019-05-23T05:45:11.762Z,13.04
2019-05-23T05:46:11.764Z,13.20
2019-05-23T05:47:11.748Z,13.25
2019-05-23T05:48:11.738Z,13.20
2019-05-23T05:49:11.717Z,13.39
2019-05-23T05:50:11.727Z,13.57
2019-05-23T05:51:11.758Z,13.81
2019-05-23T05:52:11.687Z,14.07
2019-05-23T05:53:11.683Z,14.07
2019-05-23T05:54:11.686Z,14.17
2019-05-23T05:55:11.674Z,14.30
2019-05-23T05:56:11.661Z,14.50
2019-05-23T05:57:11.628Z,14.81
2019-05-23T05:58:11.616Z,15.00
2019-05-23T05:59:11.647Z,15.18
2019-05-23T06:00:13.165Z,15.09
2019-05-23T06:01:11.581Z,15.21
2019-05-23T06:02:11.588Z,15.33
2019-05-23T06:03:11.645Z,15.29
2019-05-23T06:04:11.567Z,15.22
2019-05-23T06:05:11.544Z,15.25
2019-05-23T06:06:11.532Z,15.42
2019-05-23T06:07:11.524Z,15.21
2019-05-23T06:08:11.521Z,15.54
2019-05-23T06:09:11.494Z,15.65
2019-05-23T06:10:11.485Z,15.73
2019-05-23T06:11:11.474Z,15.98
2019-05-23T06:12:11.469Z,16.12
2019-05-23T06:13:11.462Z,15.92
2019-05-23T06:14:11.437Z,15.79
2019-05-23T06:15:11.463Z,15.94
2019-05-23T06:16:11.419Z,16.01
2019-05-23T06:17:11.404Z,15.94
2019-05-23T06:18:11.397Z,15.94
2019-05-23T06:19:11.382Z,16.02
2019-05-23T06:20:11.375Z,16.26
2019-05-23T06:21:11.464Z,16.26
2019-05-23T06:22:11.422Z,15.88
2019-05-23T06:23:11.336Z,15.90
2019-05-23T06:24:11.345Z,15.82
2019-05-23T06:25:11.907Z,15.80
2019-05-23T06:26:11.306Z,15.73
2019-05-23T06:27:11.332Z,15.76
2019-05-23T06:28:11.283Z,15.91
2019-05-23T06:29:11.272Z,15.94
2019-05-23T06:30:11.284Z,15.92
2019-05-23T06:31:11.280Z,15.98
2019-05-23T06:32:11.277Z,16.20
2019-05-23T06:33:22.561Z,16.42
2019-05-23T06:34:12.219Z,16.51
2019-05-23T06:35:11.275Z,16.72
2019-05-23T06:36:11.202Z,16.84
2019-05-23T06:37:11.204Z,16.94
2019-05-23T06:38:11.190Z,17.02
2019-05-23T06:39:11.190Z,16.64
2019-05-23T06:40:11.154Z,16.61
2019-05-23T06:41:11.150Z,16.32
2019-05-23T06:42:11.129Z,16.39
2019-05-23T06:43:11.119Z,16.35
2019-05-23T06:44:11.126Z,16.02
2019-05-23T06:45:11.118Z,16.10
2019-05-23T06:46:11.084Z,15.97
2019-05-23T06:47:11.074Z,16.09
2019-05-23T06:48:11.060Z,16.21
2019-05-23T06:49:11.093Z,16.35
2019-05-23T06:50:11.051Z,16.36
2019-05-23T06:51:11.028Z,16.41
2019-05-23T06:52:11.030Z,16.33
2019-05-23T06:53:11.031Z,16.23
2019-05-23T06:54:10.995Z,16.17
2019-05-23T06:55:11.021Z,16.21
2019-05-23T06:56:10.984Z,16.29
2019-05-23T06:57:10.962Z,16.35
2019-05-23T06:58:10.967Z,16.35
2019-05-23T06:59:10.948Z,16.39
2019-05-23T07:00:10.926Z,16.43
2019-05-23T07:01:10.936Z,16.42
2019-05-23T07:02:10.904Z,16.39
2019-05-23T07:03:10.894Z,16.60
2019-05-23T07:04:10.900Z,16.66
2019-05-23T07:05:10.872Z,16.66
2019-05-23T07:06:10.861Z,16.78
2019-05-23T07:07:10.877Z,16.87
2019-05-23T07:08:10.853Z,16.93
2019-05-23T07:09:10.827Z,16.96
2019-05-23T07:10:10.832Z,17.04
2019-05-23T07:11:10.804Z,16.96
2019-05-23T07:12:10.798Z,17.02
2019-05-23T07:13:10.813Z,16.86
2019-05-23T07:14:10.785Z,16.93
2019-05-23T07:15:10.762Z,16.87
2019-05-23T07:16:10.767Z,16.96
2019-05-23T07:17:10.739Z,16.99
2019-05-23T07:18:10.727Z,17.11
2019-05-23T07:19:10.748Z,17.04
2019-05-23T07:20:10.864Z,16.86
2019-05-23T07:21:10.700Z,16.89
2019-05-23T07:22:10.687Z,16.96
2019-05-23T07:23:10.674Z,16.99
2019-05-23T07:24:10.662Z,17.05
2019-05-23T07:25:10.650Z,17.05
2019-05-23T07:26:10.664Z,17.01
2019-05-23T07:27:10.628Z,17.09
2019-05-23T07:28:10.620Z,17.11
2019-05-23T07:29:10.608Z,17.24
2019-05-23T07:30:10.610Z,17.24
2019-05-23T07:31:10.599Z,17.38
2019-05-23T07:32:10.600Z,17.52
2019-05-23T07:33:10.562Z,17.56
2019-05-23T07:34:10.554Z,17.54
2019-05-23T07:35:10.551Z,17.63
2019-05-23T07:36:10.529Z,17.54
2019-05-23T07:37:10.519Z,17.57
2019-05-23T07:38:10.536Z,17.57
2019-05-23T07:39:11.684Z,17.57
2019-05-23T07:40:10.495Z,17.57
2019-05-23T07:41:10.474Z,17.57
2019-05-23T07:42:10.463Z,17.59
2019-05-23T07:43:10.468Z,17.65
2019-05-23T07:44:10.483Z,17.68
2019-05-23T07:45:10.429Z,17.79
2019-05-23T07:46:10.419Z,17.86
2019-05-23T07:47:10.406Z,17.95
2019-05-23T07:48:10.419Z,18.03
2019-05-23T07:49:19.029Z,18.01
2019-05-23T07:50:18.127Z,18.04
2019-05-23T07:51:17.997Z,18.07
2019-05-23T07:52:18.021Z,18.18
2019-05-23T07:53:10.351Z,18.29
2019-05-23T07:54:17.996Z,18.40
2019-05-23T07:55:10.342Z,18.50
2019-05-23T07:56:18.055Z,18.58
2019-05-23T07:57:17.982Z,18.60
2019-05-23T07:58:17.968Z,18.62
2019-05-23T07:59:10.310Z,18.63
2019-05-23T08:00:19.842Z,18.55
2019-05-23T08:01:17.932Z,18.68
2019-05-23T08:02:17.909Z,18.77
2019-05-23T08:03:10.260Z,18.75
2019-05-23T08:04:21.279Z,18.86
2019-05-23T08:05:11.251Z,18.80
2019-05-23T08:06:10.230Z,18.88
2019-05-23T08:07:10.191Z,18.86
2019-05-23T08:08:10.306Z,18.96
2019-05-23T08:09:10.165Z,19.02
2019-05-23T08:10:10.154Z,19.07
2019-05-23T08:11:18.857Z,19.09
2019-05-23T08:12:10.159Z,19.26
2019-05-23T08:13:17.761Z,19.27
2019-05-23T08:14:17.710Z,19.29
2019-05-23T08:15:10.119Z,19.18
2019-05-23T08:16:18.874Z,19.30
2019-05-23T08:17:10.093Z,19.36
2019-05-23T08:18:17.704Z,19.54
2019-05-23T08:19:19.615Z,19.58
2019-05-23T08:20:17.714Z,19.69
2019-05-23T08:21:10.062Z,19.84
2019-05-23T08:22:10.042Z,19.81
2019-05-23T08:23:10.057Z,19.77
2019-05-23T08:24:10.103Z,19.92
2019-05-23T08:25:10.183Z,19.95
2019-05-23T08:26:10.022Z,20.04
2019-05-23T08:27:09.966Z,20.13
2019-05-23T08:28:10.014Z,20.18
2019-05-23T08:29:25.630Z,20.14
2019-05-23T08:30:10.939Z,20.21
2019-05-23T08:31:09.944Z,20.22
2019-05-23T08:32:09.914Z,20.28
2019-05-23T08:33:09.946Z,20.40
2019-05-23T08:34:09.914Z,20.41
2019-05-23T08:35:09.878Z,20.52
2019-05-23T08:36:09.900Z,20.60
2019-05-23T08:37:09.863Z,20.63
2019-05-23T08:38:09.850Z,20.59
2019-05-23T08:39:09.832Z,20.55
2019-05-23T08:40:09.838Z,20.55
2019-05-23T08:41:09.834Z,20.58
2019-05-23T08:42:09.960Z,20.62
2019-05-23T08:43:09.789Z,20.72
2019-05-23T08:44:11.522Z,20.82
2019-05-23T08:45:09.785Z,20.92
2019-05-23T08:46:09.756Z,20.97
2019-05-23T08:47:09.756Z,20.85
2019-05-23T08:48:09.769Z,20.72
2019-05-23T08:49:09.723Z,20.77
2019-05-23T08:50:09.723Z,20.75
2019-05-23T08:51:09.700Z,20.65
2019-05-23T08:52:09.688Z,20.65
2019-05-23T08:53:09.690Z,20.70
2019-05-23T08:54:09.725Z,20.87
2019-05-23T08:55:09.655Z,20.84
2019-05-23T08:56:18.400Z,20.66
2019-05-23T08:57:10.638Z,20.59
2019-05-23T08:58:09.629Z,20.62
2019-05-23T08:59:09.631Z,20.70
2019-05-23T09:00:09.607Z,20.77
2019-05-23T09:01:09.640Z,20.97
2019-05-23T09:02:09.591Z,21.09
2019-05-23T09:03:09.574Z,21.12
2019-05-23T09:04:09.562Z,21.02
2019-05-23T09:05:09.562Z,21.09
2019-05-23T09:06:09.540Z,21.18
2019-05-23T09:07:09.569Z,21.20
2019-05-23T09:08:09.528Z,21.25
2019-05-23T09:09:27.829Z,21.18
2019-05-23T09:10:10.516Z,21.27
2019-05-23T09:11:09.488Z,21.35
2019-05-23T09:12:09.471Z,21.42
2019-05-23T09:13:09.509Z,21.48
2019-05-23T09:14:09.450Z,21.43
2019-05-23T09:15:10.320Z,21.54
2019-05-23T09:16:09.455Z,21.61
2019-05-23T09:17:09.851Z,21.58
2019-05-23T09:18:09.425Z,21.66
2019-05-23T09:19:09.439Z,21.72
2019-05-23T09:20:09.397Z,21.75
2019-05-23T09:21:09.401Z,21.72
2019-05-23T09:22:09.362Z,21.67
2019-05-23T09:23:09.361Z,21.67
2019-05-23T09:24:09.344Z,21.64
2019-05-23T09:25:09.331Z,21.54
2019-05-23T09:26:09.389Z,21.73
2019-05-23T09:27:09.338Z,21.88
2019-05-23T09:28:09.299Z,21.96
2019-05-23T09:29:09.301Z,21.91
2019-05-23T09:30:09.273Z,21.91
2019-05-23T09:31:09.268Z,21.91
2019-05-23T09:32:09.252Z,21.93
2019-05-23T09:33:09.290Z,21.99
2019-05-23T09:34:09.244Z,22.00
2019-05-23T09:35:20.056Z,21.92
2019-05-23T09:36:10.210Z,21.99
2019-05-23T09:37:09.201Z,21.98
2019-05-23T09:38:09.188Z,21.92
2019-05-23T09:39:09.236Z,21.96
2019-05-23T09:40:09.169Z,21.75
2019-05-23T09:41:09.163Z,21.72
2019-05-23T09:42:12.083Z,21.75
2019-05-23T09:43:09.147Z,21.79
2019-05-23T09:44:09.118Z,21.91
2019-05-23T09:45:09.164Z,22.13
2019-05-23T09:46:09.098Z,22.23
2019-05-23T09:47:09.096Z,22.36
2019-05-23T09:48:09.101Z,22.33
2019-05-23T09:49:11.316Z,22.48
2019-05-23T09:50:09.060Z,22.60
2019-05-23T09:51:09.107Z,22.62
2019-05-23T09:52:09.708Z,22.70
2019-05-23T09:53:09.020Z,22.66
2019-05-23T09:54:09.012Z,22.69
2019-05-23T09:55:09.007Z,22.69
2019-05-23T09:56:09.049Z,22.55
2019-05-23T09:57:09.078Z,22.50
2019-05-23T09:58:08.966Z,22.73
2019-05-23T09:59:08.961Z,22.48
2019-05-23T10:00:09.035Z,22.38
2019-05-23T10:01:08.943Z,22.32
2019-05-23T10:02:08.963Z,22.33
2019-05-23T10:03:08.920Z,22.39
2019-05-23T10:04:08.932Z,22.43
2019-05-23T10:05:09.020Z,22.57
2019-05-23T10:06:08.884Z,22.48
2019-05-23T10:07:08.874Z,22.39
2019-05-23T10:08:08.884Z,22.39
2019-05-23T10:09:08.848Z,22.39
2019-05-23T10:10:08.849Z,22.50
2019-05-23T10:11:08.880Z,22.62
2019-05-23T10:12:08.823Z,22.66
2019-05-23T10:13:08.802Z,22.75
2019-05-23T10:14:08.817Z,22.78
2019-05-23T10:15:08.780Z,23.05
2019-05-23T10:16:08.877Z,23.03
2019-05-23T10:17:08.782Z,23.23
2019-05-23T10:18:08.908Z,22.80
2019-05-23T10:19:08.736Z,22.41
2019-05-23T10:20:08.740Z,22.04
2019-05-23T10:21:08.718Z,21.70
2019-05-23T10:22:08.705Z,21.42
2019-05-23T10:23:08.722Z,21.61
2019-05-23T10:24:08.684Z,21.67
2019-05-23T10:25:08.671Z,21.62
2019-05-23T10:26:08.675Z,21.57
2019-05-23T10:27:08.648Z,21.69
2019-05-23T10:28:08.636Z,21.89
2019-05-23T10:29:08.665Z,22.07
2019-05-23T10:30:08.615Z,22.26
2019-05-23T10:31:08.646Z,22.36
2019-05-23T10:32:08.594Z,22.30
2019-05-23T10:33:12.237Z,22.08
2019-05-23T10:34:08.573Z,21.95
2019-05-23T10:35:08.636Z,22.17
2019-05-23T10:36:08.550Z,22.17
2019-05-23T10:37:08.539Z,21.98
2019-05-23T10:38:08.563Z,22.00
2019-05-23T10:39:08.542Z,21.99
2019-05-23T10:40:08.510Z,22.07
2019-05-23T10:41:08.637Z,22.23
2019-05-23T10:42:08.486Z,22.48
2019-05-23T10:43:08.473Z,22.60
2019-05-23T10:44:08.480Z,22.80
2019-05-23T10:45:08.463Z,22.81
2019-05-23T10:46:08.444Z,22.84
2019-05-23T10:47:08.473Z,22.70
2019-05-23T10:48:08.437Z,22.98
2019-05-23T10:49:08.407Z,23.05
2019-05-23T10:50:09.904Z,23.05
2019-05-23T10:51:08.398Z,22.96
2019-05-23T10:52:08.379Z,22.87
2019-05-23T10:53:08.413Z,22.93
2019-05-23T10:54:08.352Z,22.99
2019-05-23T10:55:08.345Z,23.13
2019-05-23T10:56:08.353Z,23.27
2019-05-23T10:57:08.323Z,23.28
2019-05-23T10:58:08.311Z,23.44
2019-05-23T10:59:08.355Z,23.40
2019-05-23T11:00:08.289Z,22.94
2019-05-23T11:01:08.277Z,22.60
2019-05-23T11:02:08.282Z,22.41
2019-05-23T11:03:08.259Z,22.47
2019-05-23T11:04:08.274Z,22.53
2019-05-23T11:05:12.883Z,22.66
2019-05-23T11:06:16.081Z,22.73
2019-05-23T11:07:09.223Z,22.72
2019-05-23T11:08:08.203Z,22.73
2019-05-23T11:09:08.204Z,22.99
2019-05-23T11:10:08.178Z,22.99
2019-05-23T11:11:08.192Z,22.99
2019-05-23T11:12:08.621Z,22.78
2019-05-23T11:13:08.147Z,22.68
2019-05-23T11:14:08.992Z,22.72
2019-05-23T11:15:08.134Z,22.96
2019-05-23T11:16:08.116Z,22.96
2019-05-23T11:17:08.146Z,22.96
2019-05-23T11:18:08.100Z,22.84
2019-05-23T11:19:08.083Z,22.75
2019-05-23T11:20:08.092Z,22.57
2019-05-23T11:21:08.062Z,22.50
2019-05-23T11:22:08.049Z,22.35
2019-05-23T11:23:08.091Z,22.04
2019-05-23T11:24:08.028Z,21.98
2019-05-23T11:25:08.020Z,22.06
2019-05-23T11:26:08.052Z,22.23
2019-05-23T11:27:07.993Z,22.43
2019-05-23T11:28:07.984Z,22.63
2019-05-23T11:29:07.988Z,22.75
2019-05-23T11:30:15.689Z,23.06
2019-05-23T11:31:07.998Z,23.13
2019-05-23T11:32:20.077Z,23.34
2019-05-23T11:33:07.970Z,23.43
2019-05-23T11:34:07.960Z,23.56
2019-05-23T11:35:07.909Z,23.58
2019-05-23T11:36:07.908Z,23.63
2019-05-23T11:37:07.966Z,23.68
2019-05-23T11:38:07.953Z,23.54
2019-05-23T11:39:08.034Z,23.61
2019-05-23T11:40:07.862Z,23.62
2019-05-23T11:41:07.873Z,23.68
2019-05-23T11:42:07.831Z,23.25
2019-05-23T11:43:07.837Z,23.20
2019-05-23T11:44:07.850Z,23.15
2019-05-23T11:45:07.796Z,23.05
2019-05-23T11:46:07.791Z,23.17
2019-05-23T11:47:07.788Z,23.12
2019-05-23T11:48:07.765Z,23.27
2019-05-23T11:49:07.783Z,23.21
2019-05-23T11:50:07.745Z,23.09
2019-05-23T11:51:07.750Z,23.25
2019-05-23T11:52:07.721Z,23.13
2019-05-23T11:53:07.712Z,23.02
2019-05-23T11:54:09.688Z,23.15
2019-05-23T11:55:07.737Z,23.20
2019-05-23T11:56:07.694Z,23.31
2019-05-23T11:57:07.711Z,23.36
2019-05-23T11:58:07.661Z,23.39
2019-05-23T11:59:07.647Z,23.51
2019-05-23T12:00:07.635Z,23.55
2019-05-23T12:01:07.741Z,23.51
2019-05-23T12:02:07.612Z,23.47
2019-05-23T12:03:07.616Z,23.39
2019-05-23T12:04:07.589Z,23.43
2019-05-23T12:05:07.581Z,23.40
2019-05-23T12:06:07.572Z,23.59
2019-05-23T12:07:07.615Z,23.68
2019-05-23T12:08:07.541Z,23.76
2019-05-23T12:09:07.547Z,23.96
2019-05-23T12:10:07.520Z,23.99
2019-05-23T12:11:07.508Z,24.01
2019-05-23T12:12:07.502Z,23.78
2019-05-23T12:13:07.532Z,23.69
2019-05-23T12:14:07.486Z,23.56
2019-05-23T12:15:07.471Z,23.50
2019-05-23T12:16:07.455Z,23.25
2019-05-23T12:17:07.448Z,23.17
2019-05-23T12:18:07.433Z,23.21
2019-05-23T12:19:07.498Z,23.10
2019-05-23T12:20:07.409Z,23.15
2019-05-23T12:21:07.401Z,23.10
2019-05-23T12:22:07.425Z,23.13
2019-05-23T12:23:10.782Z,23.05
2019-05-23T12:24:07.363Z,22.96
2019-05-23T12:25:20.761Z,22.87
2019-05-23T12:26:08.344Z,22.69
2019-05-23T12:27:07.332Z,22.55
2019-05-23T12:28:07.323Z,22.69
2019-05-23T12:29:07.307Z,22.80
2019-05-23T12:30:07.324Z,22.87
2019-05-23T12:31:07.361Z,22.87
2019-05-23T12:32:07.276Z,22.98
2019-05-23T12:33:07.287Z,23.10
2019-05-23T12:34:07.264Z,23.15
2019-05-23T12:35:11.006Z,23.25
2019-05-23T12:36:07.245Z,23.10
2019-05-23T12:37:18.837Z,23.00
2019-05-23T12:38:08.207Z,23.03
2019-05-23T12:39:07.200Z,23.08
2019-05-23T12:40:07.187Z,23.12
2019-05-23T12:41:07.199Z,23.10
2019-05-23T12:42:07.178Z,23.15
2019-05-23T12:43:07.200Z,23.23
2019-05-23T12:44:07.146Z,23.25
2019-05-23T12:45:07.140Z,23.43
2019-05-23T12:46:07.149Z,23.36
2019-05-23T12:47:07.125Z,23.50
2019-05-23T12:48:07.100Z,23.61
2019-05-23T12:49:07.116Z,23.71
2019-05-23T12:50:07.076Z,23.78
2019-05-23T12:51:07.083Z,23.83
2019-05-23T12:52:07.067Z,23.80
2019-05-23T12:53:07.048Z,23.77
2019-05-23T12:54:07.043Z,23.92
2019-05-23T12:55:07.058Z,23.87
2019-05-23T12:56:07.019Z,23.69
2019-05-23T12:57:06.999Z,23.76
2019-05-23T12:58:06.990Z,23.76
2019-05-23T12:59:06.996Z,23.66
2019-05-23T13:00:06.967Z,23.47